sensor_id;sensor_type;location;lat;lon;timestamp;P1;durP1;ratioP1;P2;durP2;ratioP2
7817;SDS011;3954;52.624;9.212;2023-11-18T00:00:35;15.43;;;12.47;;
7817;SDS011;3954;52.624;9.212;2023-11-18T00:03:01;12.53;;;11.23;;
7817;SDS011;3954;52.624;9.212;2023-11-18T00:05:27;11.30;;;10.13;;
7817;SDS011;3954;52.624;9.212;2023-11-18T00:07:53;12.07;;;10.00;;
7817;SDS011;3954;52.624;9.212;2023-11-18T00:10:20;11.33;;;10.13;;
7817;SDS011;3954;52.624;9.212;2023-11-18T00:12:46;11.63;;;10.40;;
7817;SDS011;3954;52.624;9.212;2023-11-18T00:15:12;12.77;;;10.63;;
7817;SDS011;3954;52.624;9.212;2023-11-18T00:17:39;11.70;;;10.50;;
7817;SDS011;3954;52.624;9.212;2023-11-18T00:20:06;11.40;;;9.93;;
7817;SDS011;3954;52.624;9.212;2023-11-18T00:22:37;12.97;;;11.00;;
7817;SDS011;3954;52.624;9.212;2023-11-18T00:25:03;14.20;;;10.90;;
7817;SDS011;3954;52.624;9.212;2023-11-18T00:27:39;13.40;;;11.93;;
7817;SDS011;3954;52.624;9.212;2023-11-18T00:30:05;12.97;;;10.37;;
7817;SDS011;3954;52.624;9.212;2023-11-18T00:32:33;12.33;;;11.03;;
7817;SDS011;3954;52.624;9.212;2023-11-18T00:35:01;11.87;;;10.33;;
7817;SDS011;3954;52.624;9.212;2023-11-18T00:37:29;13.47;;;10.93;;
7817;SDS011;3954;52.624;9.212;2023-11-18T00:39:56;11.23;;;10.03;;
7817;SDS011;3954;52.624;9.212;2023-11-18T00:42:22;10.07;;;8.83;;
7817;SDS011;3954;52.624;9.212;2023-11-18T00:44:48;10.00;;;8.60;;
7817;SDS011;3954;52.624;9.212;2023-11-18T00:47:14;10.50;;;7.97;;
7817;SDS011;3954;52.624;9.212;2023-11-18T00:49:40;9.70;;;8.33;;
7817;SDS011;3954;52.624;9.212;2023-11-18T00:52:07;10.23;;;9.17;;
7817;SDS011;3954;52.624;9.212;2023-11-18T00:54:34;10.23;;;9.20;;
7817;SDS011;3954;52.624;9.212;2023-11-18T00:57:01;10.70;;;9.60;;
7817;SDS011;3954;52.624;9.212;2023-11-18T00:59:28;10.67;;;9.57;;
7817;SDS011;3954;52.624;9.212;2023-11-18T01:01:54;11.20;;;9.70;;
7817;SDS011;3954;52.624;9.212;2023-11-18T01:04:20;20.50;;;12.10;;
7817;SDS011;3954;52.624;9.212;2023-11-18T01:06:46;28.30;;;12.70;;
7817;SDS011;3954;52.624;9.212;2023-11-18T01:09:14;18.20;;;13.17;;
7817;SDS011;3954;52.624;9.212;2023-11-18T01:11:41;36.33;;;13.83;;
7817;SDS011;3954;52.624;9.212;2023-11-18T01:14:07;21.23;;;13.93;;
7817;SDS011;3954;52.624;9.212;2023-11-18T01:16:33;26.80;;;14.37;;
7817;SDS011;3954;52.624;9.212;2023-11-18T01:18:59;16.47;;;13.47;;
7817;SDS011;3954;52.624;9.212;2023-11-18T01:21:25;20.80;;;14.40;;
7817;SDS011;3954;52.624;9.212;2023-11-18T01:23:52;30.00;;;14.40;;
7817;SDS011;3954;52.624;9.212;2023-11-18T01:26:19;30.33;;;15.77;;
7817;SDS011;3954;52.624;9.212;2023-11-18T01:28:46;20.60;;;14.13;;
7817;SDS011;3954;52.624;9.212;2023-11-18T01:31:13;42.27;;;18.87;;
7817;SDS011;3954;52.624;9.212;2023-11-18T01:33:39;19.17;;;13.90;;
7817;SDS011;3954;52.624;9.212;2023-11-18T01:36:06;19.53;;;15.23;;
7817;SDS011;3954;52.624;9.212;2023-11-18T01:38:33;38.00;;;16.63;;
7817;SDS011;3954;52.624;9.212;2023-11-18T01:40:59;32.83;;;16.63;;
7817;SDS011;3954;52.624;9.212;2023-11-18T01:43:26;52.77;;;17.73;;
7817;SDS011;3954;52.624;9.212;2023-11-18T01:45:52;21.13;;;16.90;;
7817;SDS011;3954;52.624;9.212;2023-11-18T01:48:19;28.10;;;18.73;;
7817;SDS011;3954;52.624;9.212;2023-11-18T01:50:47;22.57;;;16.07;;
7817;SDS011;3954;52.624;9.212;2023-11-18T01:53:13;21.93;;;16.67;;
7817;SDS011;3954;52.624;9.212;2023-11-18T01:55:39;23.27;;;16.40;;
7817;SDS011;3954;52.624;9.212;2023-11-18T01:58:05;23.13;;;15.93;;
7817;SDS011;3954;52.624;9.212;2023-11-18T02:00:37;25.63;;;16.30;;
7817;SDS011;3954;52.624;9.212;2023-11-18T02:03:06;22.80;;;16.93;;
7817;SDS011;3954;52.624;9.212;2023-11-18T02:05:34;24.80;;;16.07;;
7817;SDS011;3954;52.624;9.212;2023-11-18T02:08:01;23.87;;;15.57;;
7817;SDS011;3954;52.624;9.212;2023-11-18T02:10:29;28.43;;;17.17;;
7817;SDS011;3954;52.624;9.212;2023-11-18T02:12:57;27.20;;;16.63;;
7817;SDS011;3954;52.624;9.212;2023-11-18T02:15:31;26.50;;;15.63;;
7817;SDS011;3954;52.624;9.212;2023-11-18T02:17:59;22.27;;;14.63;;
7817;SDS011;3954;52.624;9.212;2023-11-18T02:20:27;24.33;;;15.57;;
7817;SDS011;3954;52.624;9.212;2023-11-18T02:22:54;23.40;;;15.63;;
7817;SDS011;3954;52.624;9.212;2023-11-18T02:25:20;21.60;;;14.83;;
7817;SDS011;3954;52.624;9.212;2023-11-18T02:27:53;21.33;;;13.57;;
7817;SDS011;3954;52.624;9.212;2023-11-18T02:30:19;20.53;;;14.87;;
7817;SDS011;3954;52.624;9.212;2023-11-18T02:32:47;22.50;;;15.37;;
7817;SDS011;3954;52.624;9.212;2023-11-18T02:35:20;21.27;;;14.80;;
7817;SDS011;3954;52.624;9.212;2023-11-18T02:37:50;22.67;;;14.90;;
7817;SDS011;3954;52.624;9.212;2023-11-18T02:40:22;19.40;;;13.67;;
7817;SDS011;3954;52.624;9.212;2023-11-18T02:42:50;22.13;;;15.50;;
7817;SDS011;3954;52.624;9.212;2023-11-18T02:45:19;21.27;;;14.97;;
7817;SDS011;3954;52.624;9.212;2023-11-18T02:47:46;22.90;;;16.07;;
7817;SDS011;3954;52.624;9.212;2023-11-18T02:50:12;25.77;;;15.93;;
7817;SDS011;3954;52.624;9.212;2023-11-18T02:52:40;27.93;;;16.73;;
7817;SDS011;3954;52.624;9.212;2023-11-18T02:55:06;22.97;;;16.00;;
7817;SDS011;3954;52.624;9.212;2023-11-18T02:57:33;21.83;;;15.03;;
7817;SDS011;3954;52.624;9.212;2023-11-18T02:59:59;23.23;;;15.53;;
7817;SDS011;3954;52.624;9.212;2023-11-18T03:02:26;27.97;;;16.60;;
7817;SDS011;3954;52.624;9.212;2023-11-18T03:04:55;25.40;;;15.83;;
7817;SDS011;3954;52.624;9.212;2023-11-18T03:07:21;23.03;;;15.87;;
7817;SDS011;3954;52.624;9.212;2023-11-18T03:09:47;26.23;;;15.57;;
7817;SDS011;3954;52.624;9.212;2023-11-18T03:12:13;25.53;;;16.50;;
7817;SDS011;3954;52.624;9.212;2023-11-18T03:14:39;23.07;;;16.13;;
7817;SDS011;3954;52.624;9.212;2023-11-18T03:17:07;32.47;;;19.63;;
7817;SDS011;3954;52.624;9.212;2023-11-18T03:19:36;25.77;;;17.30;;
7817;SDS011;3954;52.624;9.212;2023-11-18T03:22:02;29.70;;;18.67;;
7817;SDS011;3954;52.624;9.212;2023-11-18T03:24:28;30.00;;;20.47;;
7817;SDS011;3954;52.624;9.212;2023-11-18T03:26:54;32.00;;;19.67;;
7817;SDS011;3954;52.624;9.212;2023-11-18T03:29:20;39.83;;;20.83;;
7817;SDS011;3954;52.624;9.212;2023-11-18T03:31:46;30.07;;;19.20;;
7817;SDS011;3954;52.624;9.212;2023-11-18T03:34:13;31.83;;;20.97;;
7817;SDS011;3954;52.624;9.212;2023-11-18T03:36:40;30.20;;;20.03;;
7817;SDS011;3954;52.624;9.212;2023-11-18T03:39:07;31.93;;;21.27;;
7817;SDS011;3954;52.624;9.212;2023-11-18T03:41:33;40.20;;;23.33;;
7817;SDS011;3954;52.624;9.212;2023-11-18T03:43:58;32.20;;;21.17;;
7817;SDS011;3954;52.624;9.212;2023-11-18T03:46:25;34.33;;;22.93;;
7817;SDS011;3954;52.624;9.212;2023-11-18T03:48:51;32.17;;;21.57;;
7817;SDS011;3954;52.624;9.212;2023-11-18T03:51:17;36.13;;;21.73;;
7817;SDS011;3954;52.624;9.212;2023-11-18T03:53:44;34.87;;;22.67;;
7817;SDS011;3954;52.624;9.212;2023-11-18T03:56:10;32.13;;;22.57;;
7817;SDS011;3954;52.624;9.212;2023-11-18T03:58:36;36.13;;;23.20;;
7817;SDS011;3954;52.624;9.212;2023-11-18T04:01:02;38.77;;;23.80;;
7817;SDS011;3954;52.624;9.212;2023-11-18T04:03:28;39.80;;;24.47;;
7817;SDS011;3954;52.624;9.212;2023-11-18T04:05:54;37.43;;;23.50;;
7817;SDS011;3954;52.624;9.212;2023-11-18T04:08:20;33.43;;;22.03;;
7817;SDS011;3954;52.624;9.212;2023-11-18T04:10:47;36.63;;;22.93;;
7817;SDS011;3954;52.624;9.212;2023-11-18T04:13:13;33.00;;;22.20;;
7817;SDS011;3954;52.624;9.212;2023-11-18T04:15:39;35.63;;;22.57;;
7817;SDS011;3954;52.624;9.212;2023-11-18T04:18:05;32.60;;;22.47;;
7817;SDS011;3954;52.624;9.212;2023-11-18T04:20:31;38.37;;;24.90;;
7817;SDS011;3954;52.624;9.212;2023-11-18T04:22:57;33.70;;;22.80;;
7817;SDS011;3954;52.624;9.212;2023-11-18T04:25:24;37.97;;;23.97;;
7817;SDS011;3954;52.624;9.212;2023-11-18T04:27:52;38.37;;;23.43;;
7817;SDS011;3954;52.624;9.212;2023-11-18T04:30:18;31.63;;;22.33;;
7817;SDS011;3954;52.624;9.212;2023-11-18T04:32:44;38.20;;;24.40;;
7817;SDS011;3954;52.624;9.212;2023-11-18T04:35:10;43.77;;;24.77;;
7817;SDS011;3954;52.624;9.212;2023-11-18T04:37:37;37.07;;;23.97;;
7817;SDS011;3954;52.624;9.212;2023-11-18T04:40:05;37.47;;;25.90;;
7817;SDS011;3954;52.624;9.212;2023-11-18T04:42:34;35.27;;;25.90;;
7817;SDS011;3954;52.624;9.212;2023-11-18T04:45:04;39.67;;;26.70;;
7817;SDS011;3954;52.624;9.212;2023-11-18T04:47:30;41.00;;;27.33;;
7817;SDS011;3954;52.624;9.212;2023-11-18T04:49:56;37.00;;;25.23;;
7817;SDS011;3954;52.624;9.212;2023-11-18T04:52:22;38.37;;;25.93;;
7817;SDS011;3954;52.624;9.212;2023-11-18T04:54:48;46.30;;;28.57;;
7817;SDS011;3954;52.624;9.212;2023-11-18T04:57:15;42.87;;;29.43;;
7817;SDS011;3954;52.624;9.212;2023-11-18T04:59:41;37.67;;;25.90;;
7817;SDS011;3954;52.624;9.212;2023-11-18T05:02:09;33.87;;;25.97;;
7817;SDS011;3954;52.624;9.212;2023-11-18T05:04:35;33.60;;;26.17;;
7817;SDS011;3954;52.624;9.212;2023-11-18T05:07:01;35.43;;;26.13;;
7817;SDS011;3954;52.624;9.212;2023-11-18T05:09:27;34.77;;;26.20;;
7817;SDS011;3954;52.624;9.212;2023-11-18T05:11:53;36.13;;;26.33;;
7817;SDS011;3954;52.624;9.212;2023-11-18T05:14:20;39.00;;;27.87;;
7817;SDS011;3954;52.624;9.212;2023-11-18T05:16:46;42.00;;;29.57;;
7817;SDS011;3954;52.624;9.212;2023-11-18T05:19:14;43.03;;;27.97;;
7817;SDS011;3954;52.624;9.212;2023-11-18T05:21:41;47.03;;;30.23;;
7817;SDS011;3954;52.624;9.212;2023-11-18T05:24:08;45.93;;;29.33;;
7817;SDS011;3954;52.624;9.212;2023-11-18T05:26:34;40.57;;;28.70;;
7817;SDS011;3954;52.624;9.212;2023-11-18T05:29:00;45.67;;;28.17;;
7817;SDS011;3954;52.624;9.212;2023-11-18T05:31:27;46.17;;;30.20;;
7817;SDS011;3954;52.624;9.212;2023-11-18T05:33:53;46.07;;;29.53;;
7817;SDS011;3954;52.624;9.212;2023-11-18T05:36:21;51.93;;;31.27;;
7817;SDS011;3954;52.624;9.212;2023-11-18T05:38:52;52.77;;;30.67;;
7817;SDS011;3954;52.624;9.212;2023-11-18T05:41:19;57.90;;;32.43;;
7817;SDS011;3954;52.624;9.212;2023-11-18T05:43:52;53.23;;;33.20;;
7817;SDS011;3954;52.624;9.212;2023-11-18T05:46:18;58.60;;;32.93;;
7817;SDS011;3954;52.624;9.212;2023-11-18T05:48:49;68.30;;;35.30;;
7817;SDS011;3954;52.624;9.212;2023-11-18T05:51:18;74.23;;;38.53;;
7817;SDS011;3954;52.624;9.212;2023-11-18T05:53:46;70.73;;;38.17;;
7817;SDS011;3954;52.624;9.212;2023-11-18T05:56:12;77.80;;;39.83;;
7817;SDS011;3954;52.624;9.212;2023-11-18T05:58:38;81.00;;;40.90;;
7817;SDS011;3954;52.624;9.212;2023-11-18T06:01:04;82.77;;;40.83;;
7817;SDS011;3954;52.624;9.212;2023-11-18T06:03:33;76.77;;;39.17;;
7817;SDS011;3954;52.624;9.212;2023-11-18T06:06:02;78.83;;;40.77;;
7817;SDS011;3954;52.624;9.212;2023-11-18T06:08:31;84.80;;;40.20;;
7817;SDS011;3954;52.624;9.212;2023-11-18T06:10:59;91.80;;;41.73;;
7817;SDS011;3954;52.624;9.212;2023-11-18T06:13:25;84.40;;;38.37;;
7817;SDS011;3954;52.624;9.212;2023-11-18T06:15:52;98.70;;;42.57;;
7817;SDS011;3954;52.624;9.212;2023-11-18T06:18:18;100.07;;;41.73;;
7817;SDS011;3954;52.624;9.212;2023-11-18T06:20:44;93.97;;;42.07;;
7817;SDS011;3954;52.624;9.212;2023-11-18T06:23:10;104.40;;;43.10;;
7817;SDS011;3954;52.624;9.212;2023-11-18T06:25:36;97.03;;;40.90;;
7817;SDS011;3954;52.624;9.212;2023-11-18T06:28:04;99.40;;;44.30;;
7817;SDS011;3954;52.624;9.212;2023-11-18T06:30:33;97.70;;;41.77;;
7817;SDS011;3954;52.624;9.212;2023-11-18T06:32:59;99.27;;;40.73;;
7817;SDS011;3954;52.624;9.212;2023-11-18T06:35:25;97.37;;;43.23;;
7817;SDS011;3954;52.624;9.212;2023-11-18T06:37:52;94.17;;;40.73;;
7817;SDS011;3954;52.624;9.212;2023-11-18T06:40:18;91.70;;;42.27;;
7817;SDS011;3954;52.624;9.212;2023-11-18T06:42:46;97.73;;;42.83;;
7817;SDS011;3954;52.624;9.212;2023-11-18T06:45:14;100.87;;;41.60;;
7817;SDS011;3954;52.624;9.212;2023-11-18T06:47:40;104.83;;;44.50;;
7817;SDS011;3954;52.624;9.212;2023-11-18T06:50:09;101.20;;;42.90;;
7817;SDS011;3954;52.624;9.212;2023-11-18T06:52:36;96.43;;;43.40;;
7817;SDS011;3954;52.624;9.212;2023-11-18T06:55:03;93.03;;;42.33;;
7817;SDS011;3954;52.624;9.212;2023-11-18T06:57:29;92.20;;;42.23;;
7817;SDS011;3954;52.624;9.212;2023-11-18T06:59:57;106.27;;;43.87;;
7817;SDS011;3954;52.624;9.212;2023-11-18T07:02:24;94.80;;;42.93;;
7817;SDS011;3954;52.624;9.212;2023-11-18T07:04:50;96.00;;;42.63;;
7817;SDS011;3954;52.624;9.212;2023-11-18T07:07:16;104.17;;;45.03;;
7817;SDS011;3954;52.624;9.212;2023-11-18T07:09:42;103.03;;;43.20;;
7817;SDS011;3954;52.624;9.212;2023-11-18T07:12:09;100.97;;;44.47;;
7817;SDS011;3954;52.624;9.212;2023-11-18T07:14:35;100.10;;;44.87;;
7817;SDS011;3954;52.624;9.212;2023-11-18T07:17:02;92.53;;;43.53;;
7817;SDS011;3954;52.624;9.212;2023-11-18T07:19:31;93.57;;;41.47;;
7817;SDS011;3954;52.624;9.212;2023-11-18T07:21:58;82.73;;;39.93;;
7817;SDS011;3954;52.624;9.212;2023-11-18T07:24:24;82.67;;;40.27;;
7817;SDS011;3954;52.624;9.212;2023-11-18T07:26:50;77.57;;;38.70;;
7817;SDS011;3954;52.624;9.212;2023-11-18T07:29:16;71.67;;;36.60;;
7817;SDS011;3954;52.624;9.212;2023-11-18T07:31:42;68.83;;;36.40;;
7817;SDS011;3954;52.624;9.212;2023-11-18T07:34:10;67.73;;;35.90;;
7817;SDS011;3954;52.624;9.212;2023-11-18T07:36:37;61.17;;;33.80;;
7817;SDS011;3954;52.624;9.212;2023-11-18T07:39:04;57.03;;;33.57;;
7817;SDS011;3954;52.624;9.212;2023-11-18T07:41:30;60.37;;;32.20;;
7817;SDS011;3954;52.624;9.212;2023-11-18T07:43:56;59.70;;;35.07;;
7817;SDS011;3954;52.624;9.212;2023-11-18T07:46:22;57.60;;;34.37;;
7817;SDS011;3954;52.624;9.212;2023-11-18T07:48:48;55.73;;;34.70;;
7817;SDS011;3954;52.624;9.212;2023-11-18T07:51:14;56.07;;;33.17;;
7817;SDS011;3954;52.624;9.212;2023-11-18T07:53:42;49.67;;;31.10;;
7817;SDS011;3954;52.624;9.212;2023-11-18T07:56:08;53.33;;;31.30;;
7817;SDS011;3954;52.624;9.212;2023-11-18T07:58:37;49.70;;;32.37;;
7817;SDS011;3954;52.624;9.212;2023-11-18T08:01:03;57.77;;;34.47;;
7817;SDS011;3954;52.624;9.212;2023-11-18T08:03:32;54.97;;;32.40;;
7817;SDS011;3954;52.624;9.212;2023-11-18T08:05:58;53.30;;;32.03;;
7817;SDS011;3954;52.624;9.212;2023-11-18T08:08:24;54.13;;;32.67;;
7817;SDS011;3954;52.624;9.212;2023-11-18T08:10:52;51.87;;;32.53;;
7817;SDS011;3954;52.624;9.212;2023-11-18T08:13:20;50.23;;;32.50;;
7817;SDS011;3954;52.624;9.212;2023-11-18T08:15:46;43.13;;;30.87;;
7817;SDS011;3954;52.624;9.212;2023-11-18T08:18:12;52.63;;;31.73;;
7817;SDS011;3954;52.624;9.212;2023-11-18T08:20:38;50.67;;;33.40;;
7817;SDS011;3954;52.624;9.212;2023-11-18T08:23:05;48.57;;;31.47;;
7817;SDS011;3954;52.624;9.212;2023-11-18T08:25:31;45.23;;;29.97;;
7817;SDS011;3954;52.624;9.212;2023-11-18T08:28:06;44.63;;;29.90;;
7817;SDS011;3954;52.624;9.212;2023-11-18T08:30:32;45.47;;;29.70;;
7817;SDS011;3954;52.624;9.212;2023-11-18T08:32:59;48.93;;;30.90;;
7817;SDS011;3954;52.624;9.212;2023-11-18T08:35:25;51.00;;;31.50;;
7817;SDS011;3954;52.624;9.212;2023-11-18T08:37:51;51.43;;;32.00;;
7817;SDS011;3954;52.624;9.212;2023-11-18T08:40:17;53.33;;;32.00;;
7817;SDS011;3954;52.624;9.212;2023-11-18T08:42:51;50.83;;;32.90;;
7817;SDS011;3954;52.624;9.212;2023-11-18T08:45:20;48.60;;;31.13;;
7817;SDS011;3954;52.624;9.212;2023-11-18T08:47:54;53.60;;;33.17;;
7817;SDS011;3954;52.624;9.212;2023-11-18T08:50:20;55.10;;;33.30;;
7817;SDS011;3954;52.624;9.212;2023-11-18T08:52:49;52.20;;;31.13;;
7817;SDS011;3954;52.624;9.212;2023-11-18T08:55:18;51.50;;;30.90;;
7817;SDS011;3954;52.624;9.212;2023-11-18T08:58:02;49.33;;;30.63;;
7817;SDS011;3954;52.624;9.212;2023-11-18T09:00:41;50.13;;;29.90;;
7817;SDS011;3954;52.624;9.212;2023-11-18T09:03:10;49.00;;;30.13;;
7817;SDS011;3954;52.624;9.212;2023-11-18T09:05:43;43.40;;;29.27;;
7817;SDS011;3954;52.624;9.212;2023-11-18T09:08:21;45.33;;;28.90;;
7817;SDS011;3954;52.624;9.212;2023-11-18T09:10:47;44.20;;;29.80;;
7817;SDS011;3954;52.624;9.212;2023-11-18T09:13:13;41.03;;;28.07;;
7817;SDS011;3954;52.624;9.212;2023-11-18T09:15:39;44.03;;;28.93;;
7817;SDS011;3954;52.624;9.212;2023-11-18T09:18:08;40.10;;;27.77;;
7817;SDS011;3954;52.624;9.212;2023-11-18T09:20:35;35.90;;;25.83;;
7817;SDS011;3954;52.624;9.212;2023-11-18T09:23:01;33.37;;;25.40;;
7817;SDS011;3954;52.624;9.212;2023-11-18T09:25:27;30.63;;;23.53;;
7817;SDS011;3954;52.624;9.212;2023-11-18T09:27:53;32.30;;;25.37;;
7817;SDS011;3954;52.624;9.212;2023-11-18T09:30:19;36.13;;;25.10;;
7817;SDS011;3954;52.624;9.212;2023-11-18T09:32:45;31.87;;;25.30;;
7817;SDS011;3954;52.624;9.212;2023-11-18T09:35:15;29.87;;;24.27;;
7817;SDS011;3954;52.624;9.212;2023-11-18T09:37:42;26.13;;;21.90;;
7817;SDS011;3954;52.624;9.212;2023-11-18T09:40:08;23.43;;;18.90;;
7817;SDS011;3954;52.624;9.212;2023-11-18T09:42:38;24.50;;;18.03;;
7817;SDS011;3954;52.624;9.212;2023-11-18T09:45:05;22.67;;;18.47;;
7817;SDS011;3954;52.624;9.212;2023-11-18T09:47:36;22.47;;;18.27;;
7817;SDS011;3954;52.624;9.212;2023-11-18T09:50:08;25.70;;;19.00;;
7817;SDS011;3954;52.624;9.212;2023-11-18T09:52:36;23.77;;;19.03;;
7817;SDS011;3954;52.624;9.212;2023-11-18T09:55:08;24.43;;;18.43;;
7817;SDS011;3954;52.624;9.212;2023-11-18T09:57:40;28.10;;;19.20;;
7817;SDS011;3954;52.624;9.212;2023-11-18T10:00:06;28.00;;;20.53;;
7817;SDS011;3954;52.624;9.212;2023-11-18T10:02:45;28.53;;;21.17;;
7817;SDS011;3954;52.624;9.212;2023-11-18T10:05:11;23.97;;;18.70;;
7817;SDS011;3954;52.624;9.212;2023-11-18T10:07:40;24.53;;;18.60;;
7817;SDS011;3954;52.624;9.212;2023-11-18T10:10:08;22.93;;;17.47;;
7817;SDS011;3954;52.624;9.212;2023-11-18T10:12:40;23.70;;;17.73;;
7817;SDS011;3954;52.624;9.212;2023-11-18T10:15:07;23.37;;;17.50;;
7817;SDS011;3954;52.624;9.212;2023-11-18T10:17:36;19.83;;;16.37;;
7817;SDS011;3954;52.624;9.212;2023-11-18T10:20:10;20.60;;;16.80;;
7817;SDS011;3954;52.624;9.212;2023-11-18T10:22:42;22.97;;;16.47;;
7817;SDS011;3954;52.624;9.212;2023-11-18T10:25:09;24.90;;;17.27;;
7817;SDS011;3954;52.624;9.212;2023-11-18T10:27:38;22.33;;;16.73;;
7817;SDS011;3954;52.624;9.212;2023-11-18T10:30:11;29.17;;;17.63;;
7817;SDS011;3954;52.624;9.212;2023-11-18T10:32:44;23.17;;;18.00;;
7817;SDS011;3954;52.624;9.212;2023-11-18T10:35:11;28.03;;;18.97;;
7817;SDS011;3954;52.624;9.212;2023-11-18T10:37:37;27.27;;;18.33;;
7817;SDS011;3954;52.624;9.212;2023-11-18T10:40:10;27.77;;;18.60;;
7817;SDS011;3954;52.624;9.212;2023-11-18T10:42:38;26.47;;;17.70;;
7817;SDS011;3954;52.624;9.212;2023-11-18T10:45:05;25.60;;;18.63;;
7817;SDS011;3954;52.624;9.212;2023-11-18T10:47:32;31.00;;;18.90;;
7817;SDS011;3954;52.624;9.212;2023-11-18T10:49:58;28.17;;;19.10;;
7817;SDS011;3954;52.624;9.212;2023-11-18T10:52:26;32.03;;;19.23;;
7817;SDS011;3954;52.624;9.212;2023-11-18T10:54:56;27.80;;;18.90;;
7817;SDS011;3954;52.624;9.212;2023-11-18T10:57:23;31.17;;;19.60;;
7817;SDS011;3954;52.624;9.212;2023-11-18T10:59:59;30.43;;;19.03;;
7817;SDS011;3954;52.624;9.212;2023-11-18T11:02:25;30.87;;;19.17;;
7817;SDS011;3954;52.624;9.212;2023-11-18T11:04:51;32.63;;;19.93;;
7817;SDS011;3954;52.624;9.212;2023-11-18T11:07:17;30.37;;;19.07;;
7817;SDS011;3954;52.624;9.212;2023-11-18T11:09:45;33.63;;;19.13;;
7817;SDS011;3954;52.624;9.212;2023-11-18T11:12:11;31.50;;;20.10;;
7817;SDS011;3954;52.624;9.212;2023-11-18T11:14:47;28.80;;;19.00;;
7817;SDS011;3954;52.624;9.212;2023-11-18T11:17:17;29.87;;;17.73;;
7817;SDS011;3954;52.624;9.212;2023-11-18T11:19:55;28.13;;;16.87;;
7817;SDS011;3954;52.624;9.212;2023-11-18T11:22:37;24.80;;;15.17;;
7817;SDS011;3954;52.624;9.212;2023-11-18T11:25:07;25.57;;;15.50;;
7817;SDS011;3954;52.624;9.212;2023-11-18T11:27:38;25.83;;;15.33;;
7817;SDS011;3954;52.624;9.212;2023-11-18T11:30:16;24.27;;;14.97;;
7817;SDS011;3954;52.624;9.212;2023-11-18T11:32:45;22.73;;;14.33;;
7817;SDS011;3954;52.624;9.212;2023-11-18T11:35:15;23.33;;;13.90;;
7817;SDS011;3954;52.624;9.212;2023-11-18T11:37:44;21.10;;;14.97;;
7817;SDS011;3954;52.624;9.212;2023-11-18T11:40:12;24.17;;;14.77;;
7817;SDS011;3954;52.624;9.212;2023-11-18T11:42:46;22.90;;;14.33;;
7817;SDS011;3954;52.624;9.212;2023-11-18T11:45:15;24.80;;;13.47;;
7817;SDS011;3954;52.624;9.212;2023-11-18T11:47:53;21.83;;;13.07;;
7817;SDS011;3954;52.624;9.212;2023-11-18T11:50:37;21.67;;;13.00;;
7817;SDS011;3954;52.624;9.212;2023-11-18T11:53:10;22.70;;;13.47;;
7817;SDS011;3954;52.624;9.212;2023-11-18T11:55:41;22.50;;;13.63;;
7817;SDS011;3954;52.624;9.212;2023-11-18T11:58:24;19.93;;;12.40;;
7817;SDS011;3954;52.624;9.212;2023-11-18T12:00:52;21.33;;;13.13;;
7817;SDS011;3954;52.624;9.212;2023-11-18T12:03:19;20.50;;;12.17;;
7817;SDS011;3954;52.624;9.212;2023-11-18T12:05:47;21.83;;;13.17;;
7817;SDS011;3954;52.624;9.212;2023-11-18T12:08:14;20.60;;;11.77;;
7817;SDS011;3954;52.624;9.212;2023-11-18T12:10:49;22.83;;;12.77;;
7817;SDS011;3954;52.624;9.212;2023-11-18T12:13:17;20.20;;;12.30;;
7817;SDS011;3954;52.624;9.212;2023-11-18T12:15:47;19.73;;;12.87;;
7817;SDS011;3954;52.624;9.212;2023-11-18T12:18:20;20.70;;;12.07;;
7817;SDS011;3954;52.624;9.212;2023-11-18T12:20:47;18.80;;;12.40;;
7817;SDS011;3954;52.624;9.212;2023-11-18T12:23:13;19.60;;;12.73;;
7817;SDS011;3954;52.624;9.212;2023-11-18T12:25:40;20.23;;;12.33;;
7817;SDS011;3954;52.624;9.212;2023-11-18T12:28:09;21.70;;;12.53;;
7817;SDS011;3954;52.624;9.212;2023-11-18T12:30:39;22.77;;;14.20;;
7817;SDS011;3954;52.624;9.212;2023-11-18T12:33:16;20.37;;;12.70;;
7817;SDS011;3954;52.624;9.212;2023-11-18T12:38:42;21.27;;;12.90;;
7817;SDS011;3954;52.624;9.212;2023-11-18T12:41:17;19.00;;;12.00;;
7817;SDS011;3954;52.624;9.212;2023-11-18T12:43:56;20.07;;;12.57;;
7817;SDS011;3954;52.624;9.212;2023-11-18T12:46:43;21.67;;;12.10;;
7817;SDS011;3954;52.624;9.212;2023-11-18T12:49:19;18.47;;;12.80;;
7817;SDS011;3954;52.624;9.212;2023-11-18T12:51:49;19.70;;;12.20;;
7817;SDS011;3954;52.624;9.212;2023-11-18T12:54:17;18.97;;;13.10;;
7817;SDS011;3954;52.624;9.212;2023-11-18T12:56:43;17.37;;;11.40;;
7817;SDS011;3954;52.624;9.212;2023-11-18T12:59:13;15.47;;;10.70;;
7817;SDS011;3954;52.624;9.212;2023-11-18T13:01:42;17.87;;;10.90;;
7817;SDS011;3954;52.624;9.212;2023-11-18T13:04:15;15.03;;;9.93;;
7817;SDS011;3954;52.624;9.212;2023-11-18T13:06:41;18.53;;;11.73;;
7817;SDS011;3954;52.624;9.212;2023-11-18T13:09:08;15.83;;;10.50;;
7817;SDS011;3954;52.624;9.212;2023-11-18T13:11:36;18.33;;;10.13;;
7817;SDS011;3954;52.624;9.212;2023-11-18T13:14:07;14.83;;;10.10;;
7817;SDS011;3954;52.624;9.212;2023-11-18T13:16:33;13.87;;;10.70;;
7817;SDS011;3954;52.624;9.212;2023-11-18T13:19:00;15.43;;;11.07;;
7817;SDS011;3954;52.624;9.212;2023-11-18T13:21:26;19.23;;;12.00;;
7817;SDS011;3954;52.624;9.212;2023-11-18T13:23:54;15.17;;;11.00;;
7817;SDS011;3954;52.624;9.212;2023-11-18T13:26:20;15.70;;;10.90;;
7817;SDS011;3954;52.624;9.212;2023-11-18T13:28:48;15.10;;;10.67;;
7817;SDS011;3954;52.624;9.212;2023-11-18T13:31:14;15.93;;;9.97;;
7817;SDS011;3954;52.624;9.212;2023-11-18T13:33:44;14.50;;;10.23;;
7817;SDS011;3954;52.624;9.212;2023-11-18T13:36:12;13.93;;;9.93;;
7817;SDS011;3954;52.624;9.212;2023-11-18T13:38:39;15.47;;;10.40;;
7817;SDS011;3954;52.624;9.212;2023-11-18T13:41:06;12.83;;;9.03;;
7817;SDS011;3954;52.624;9.212;2023-11-18T13:43:43;15.67;;;9.57;;
7817;SDS011;3954;52.624;9.212;2023-11-18T13:46:11;14.50;;;9.30;;
7817;SDS011;3954;52.624;9.212;2023-11-18T13:48:38;12.13;;;9.40;;
7817;SDS011;3954;52.624;9.212;2023-11-18T13:51:08;11.80;;;8.40;;
7817;SDS011;3954;52.624;9.212;2023-11-18T13:53:37;11.87;;;8.77;;
7817;SDS011;3954;52.624;9.212;2023-11-18T13:56:04;14.10;;;9.30;;
7817;SDS011;3954;52.624;9.212;2023-11-18T13:58:30;12.87;;;8.93;;
7817;SDS011;3954;52.624;9.212;2023-11-18T14:00:56;15.10;;;9.57;;
7817;SDS011;3954;52.624;9.212;2023-11-18T14:03:24;13.63;;;8.53;;
7817;SDS011;3954;52.624;9.212;2023-11-18T14:05:51;13.27;;;8.83;;
7817;SDS011;3954;52.624;9.212;2023-11-18T14:08:17;15.60;;;8.93;;
7817;SDS011;3954;52.624;9.212;2023-11-18T14:10:44;12.20;;;8.87;;
7817;SDS011;3954;52.624;9.212;2023-11-18T14:13:10;10.97;;;8.67;;
7817;SDS011;3954;52.624;9.212;2023-11-18T14:15:42;10.73;;;8.33;;
7817;SDS011;3954;52.624;9.212;2023-11-18T14:18:10;11.23;;;9.47;;
7817;SDS011;3954;52.624;9.212;2023-11-18T14:20:39;12.87;;;8.93;;
7817;SDS011;3954;52.624;9.212;2023-11-18T14:23:05;10.17;;;8.80;;
7817;SDS011;3954;52.624;9.212;2023-11-18T14:25:32;10.73;;;8.97;;
7817;SDS011;3954;52.624;9.212;2023-11-18T14:28:02;9.17;;;7.67;;
7817;SDS011;3954;52.624;9.212;2023-11-18T14:30:28;12.80;;;8.50;;
7817;SDS011;3954;52.624;9.212;2023-11-18T14:32:55;12.43;;;7.80;;
7817;SDS011;3954;52.624;9.212;2023-11-18T14:35:21;10.87;;;8.90;;
7817;SDS011;3954;52.624;9.212;2023-11-18T14:37:49;10.97;;;8.63;;
7817;SDS011;3954;52.624;9.212;2023-11-18T14:40:15;9.23;;;7.67;;
7817;SDS011;3954;52.624;9.212;2023-11-18T14:42:41;10.03;;;8.20;;
7817;SDS011;3954;52.624;9.212;2023-11-18T14:45:12;10.87;;;8.07;;
7817;SDS011;3954;52.624;9.212;2023-11-18T14:47:38;8.83;;;7.17;;
7817;SDS011;3954;52.624;9.212;2023-11-18T14:50:04;8.23;;;7.03;;
7817;SDS011;3954;52.624;9.212;2023-11-18T14:52:40;8.70;;;7.37;;
7817;SDS011;3954;52.624;9.212;2023-11-18T14:55:08;10.50;;;7.70;;
7817;SDS011;3954;52.624;9.212;2023-11-18T14:57:37;8.10;;;7.00;;